Time;durP1;ratioP1;P1;durP2;ratioP2;P2;SDS_P1;SDS_P2;PMS_P1;PMS_P2;Temp;Humidity;BMP_temperature;BMP_pressure;BME280_temperature;BME280_humidity;BME280_pressure;Samples;Min_cycle;Max_cycle;Signal;HPM_P1;HPM_P2
2023/04/23 00:02:10;;;;;;;5.68;2.60;;;;;;;;;;5056227;28;20044;-57
2023/04/23 00:04:49;;;;;;;5.43;2.50;;;;;;;;;;5059634;28;20057;-57
2023/04/23 00:07:18;;;;;;;4.88;2.53;;;;;;;;;;5059821;28;20049;-55
2023/04/23 00:09:55;;;;;;;3.45;2.50;;;;;;;;;;5058062;28;20044;-56
2023/04/23 00:12:23;;;;;;;4.32;2.90;;;;;;;;;;5059076;28;20048;-63
2023/04/23 00:14:50;;;;;;;5.38;2.78;;;;;;;;;;5059389;28;20083;-63
2023/04/23 00:17:23;;;;;;;5.35;2.30;;;;;;;;;;5045262;28;20049;-63
2023/04/23 00:19:57;;;;;;;4.25;3.00;;;;;;;;;;5057513;28;20049;-63
2023/04/23 00:22:25;;;;;;;6.50;3.05;;;;;;;;;;5057455;28;20350;-57
2023/04/23 00:24:52;;;;;;;4.78;2.72;;;;;;;;;;5057686;28;20061;-64
2023/04/23 00:27:25;;;;;;;4.97;3.00;;;;;;;;;;5055195;28;20144;-56
2023/04/23 00:29:53;;;;;;;5.38;3.03;;;;;;;;;;5058938;28;20419;-57
2023/04/23 00:32:26;;;;;;;5.75;2.80;;;;;;;;;;5055357;28;20056;-56
2023/04/23 00:34:55;;;;;;;3.67;2.75;;;;;;;;;;5058116;28;20052;-57
2023/04/23 00:37:22;;;;;;;7.43;3.10;;;;;;;;;;5057741;28;20528;-57
2023/04/23 00:39:56;;;;;;;6.50;3.20;;;;;;;;;;5056716;28;20507;-56
2023/04/23 00:42:24;;;;;;;7.55;3.00;;;;;;;;;;5056524;28;20060;-61
2023/04/23 00:44:58;;;;;;;5.13;3.10;;;;;;;;;;5055364;28;20087;-61
2023/04/23 00:47:25;;;;;;;8.57;2.97;;;;;;;;;;5054774;28;20148;-62
2023/04/23 00:50:07;;;;;;;9.57;3.33;;;;;;;;;;5057728;28;20048;-60
2023/04/23 00:52:40;;;;;;;9.10;2.90;;;;;;;;;;5054867;28;20052;-59
2023/04/23 00:55:15;;;;;;;6.18;3.10;;;;;;;;;;5054792;28;20059;-59
2023/04/23 00:57:48;;;;;;;7.15;2.97;;;;;;;;;;5056625;28;20051;-59
2023/04/23 01:00:22;;;;;;;5.05;3.03;;;;;;;;;;5056379;28;20056;-59
2023/04/23 01:02:57;;;;;;;4.90;3.08;;;;;;;;;;5057545;28;21527;-59
2023/04/23 01:05:30;;;;;;;6.55;3.10;;;;;;;;;;5057522;28;20086;-59
2023/04/23 01:08:04;;;;;;;4.10;3.03;;;;;;;;;;5057174;28;20089;-59
2023/04/23 01:10:32;;;;;;;4.47;3.17;;;;;;;;;;5058447;28;20130;-65
2023/04/23 01:13:05;;;;;;;7.05;2.75;;;;;;;;;;5055929;28;20057;-63
2023/04/23 01:15:32;;;;;;;4.20;3.10;;;;;;;;;;5056572;28;20434;-63
2023/04/23 01:18:06;;;;;;;5.90;2.90;;;;;;;;;;5056897;28;20469;-63
2023/04/23 01:20:34;;;;;;;;;;;;;;;;;;5055560;28;20294;-62
2023/04/23 01:23:04;;;;;;;5.22;3.10;;;;;;;;;;5058896;28;19924;-61
2023/04/23 01:25:38;;;;;;;4.60;3.20;;;;;;;;;;5056189;28;20143;-61
2023/04/23 01:28:06;;;;;;;8.52;2.75;;;;;;;;;;5044132;28;20310;-61
2023/04/23 01:30:42;;;;;;;6.43;3.10;;;;;;;;;;5058190;28;20048;-62
2023/04/23 01:33:10;;;;;;;6.40;2.70;;;;;;;;;;5056727;28;20063;-61
2023/04/23 01:35:44;;;;;;;4.25;2.33;;;;;;;;;;5055166;28;20060;-61
2023/04/23 01:38:13;;;;;;;7.07;2.58;;;;;;;;;;5053250;28;20128;-56
2023/04/23 01:40:40;;;;;;;8.93;2.83;;;;;;;;;;5053773;28;20151;-56
2023/04/23 01:43:15;;;;;;;8.10;3.25;;;;;;;;;;5051371;28;20049;-55
2023/04/23 01:45:42;;;;;;;;;;;;;;;;;;5053364;28;20060;-56
2023/04/23 01:48:28;;;;;;;8.52;2.80;;;;;;;;;;5057662;28;19920;-61
2023/04/23 01:51:02;;;;;;;4.75;3.13;;;;;;;;;;5057180;28;20059;-60
2023/04/23 01:53:37;;;;;;;5.55;3.15;;;;;;;;;;5053871;28;20053;-61
2023/04/23 01:56:04;;;;;;;;;;;;;;;;;;5053866;28;20139;-61
2023/04/23 01:58:31;;;;;;;6.38;3.08;;;;;;;;;;5054551;28;19929;-61
2023/04/23 02:01:05;;;;;;;4.18;3.22;;;;;;;;;;5056309;28;20052;-61
2023/04/23 02:03:33;;;;;;;7.65;3.25;;;;;;;;;;5050989;28;20053;-60
2023/04/23 02:06:07;;;;;;;7.05;3.50;;;;;;;;;;5057362;28;20063;-60
2023/04/23 02:08:35;;;;;;;7.93;3.55;;;;;;;;;;5056611;28;20059;-60
2023/04/23 02:11:02;;;;;;;8.07;3.20;;;;;;;;;;5055422;28;20052;-60
2023/04/23 02:13:35;;;;;;;6.05;3.45;;;;;;;;;;5054722;28;20048;-60
2023/04/23 02:16:03;;;;;;;4.18;3.22;;;;;;;;;;5055005;28;20052;-61
2023/04/23 02:18:36;;;;;;;5.80;3.35;;;;;;;;;;5057237;28;20150;-49
2023/04/23 02:21:05;;;;;;;7.50;4.13;;;;;;;;;;5052578;28;20057;-60
2023/04/23 02:23:32;;;;;;;5.82;3.17;;;;;;;;;;5055095;28;20051;-60
2023/04/23 02:26:06;;;;;;;7.68;3.90;;;;;;;;;;5054937;28;20098;-61
2023/04/23 02:28:34;;;;;;;5.55;4.00;;;;;;;;;;5054854;28;20056;-60
2023/04/23 02:31:01;;;;;;;7.60;4.22;;;;;;;;;;5051441;28;20500;-61
2023/04/23 02:33:34;;;;;;;4.93;3.72;;;;;;;;;;5053658;28;20578;-61
2023/04/23 02:36:02;;;;;;;4.88;3.75;;;;;;;;;;5053399;28;21181;-51
2023/04/23 02:38:35;;;;;;;7.30;3.92;;;;;;;;;;5053136;28;20063;-46
2023/04/23 02:41:03;;;;;;;5.38;3.60;;;;;;;;;;5055260;28;20079;-51
2023/04/23 02:43:30;;;;;;;8.60;4.15;;;;;;;;;;5055053;28;20114;-52
2023/04/23 02:46:07;;;;;;;6.97;4.00;;;;;;;;;;5051939;28;20059;-62
2023/04/23 02:48:41;;;;;;;7.13;3.88;;;;;;;;;;5056031;28;20076;-56
2023/04/23 02:51:21;;;;;;;6.97;3.80;;;;;;;;;;5056498;28;20131;-56
2023/04/23 02:53:48;;;;;;;7.53;3.80;;;;;;;;;;5051281;28;20048;-57
2023/04/23 02:56:22;;;;;;;5.93;3.58;;;;;;;;;;5054796;28;20053;-57
2023/04/23 02:58:50;;;;;;;4.55;3.22;;;;;;;;;;5048363;28;20655;-56
2023/04/23 03:01:17;;;;;;;5.38;3.50;;;;;;;;;;5052121;28;20160;-56
2023/04/23 03:03:52;;;;;;;5.38;3.97;;;;;;;;;;5054842;28;20053;-56
2023/04/23 03:06:20;;;;;;;5.85;3.42;;;;;;;;;;5054552;28;20401;-51
2023/04/23 03:08:53;;;;;;;5.53;3.38;;;;;;;;;;5053083;28;20095;-47
2023/04/23 03:11:21;;;;;;;4.45;3.65;;;;;;;;;;5056109;28;20059;-57
2023/04/23 03:13:48;;;;;;;;;;;;;;;;;;5051282;28;20057;-53
2023/04/23 03:16:22;;;;;;;9.15;3.80;;;;;;;;;;5057539;28;20019;-50
2023/04/23 03:18:50;;;;;;;6.15;3.40;;;;;;;;;;5054829;28;20045;-44
2023/04/23 03:21:24;;;;;;;7.10;3.53;;;;;;;;;;5054819;28;20142;-45
2023/04/23 03:23:51;;;;;;;5.55;3.55;;;;;;;;;;5053932;28;21628;-46
2023/04/23 03:26:18;;;;;;;7.20;3.53;;;;;;;;;;5054103;28;20133;-48
2023/04/23 03:28:51;;;;;;;6.70;4.07;;;;;;;;;;5050357;28;20044;-46
2023/04/23 03:31:18;;;;;;;9.95;3.97;;;;;;;;;;5055325;28;20153;-48
2023/04/23 03:33:52;;;;;;;5.43;3.83;;;;;;;;;;5058794;28;20048;-55
2023/04/23 03:36:20;;;;;;;8.10;4.00;;;;;;;;;;5058760;28;20048;-55
2023/04/23 03:38:47;;;;;;;8.02;4.10;;;;;;;;;;5058867;28;20458;-55
2023/04/23 03:41:20;;;;;;;8.10;4.18;;;;;;;;;;5056716;28;20063;-55
2023/04/23 03:43:48;;;;;;;6.13;3.40;;;;;;;;;;5056474;28;20056;-58
2023/04/23 03:46:21;;;;;;;5.97;4.32;;;;;;;;;;5061152;28;20048;-59
2023/04/23 03:49:01;;;;;;;9.45;3.95;;;;;;;;;;5056457;28;20147;-59
2023/04/23 03:51:35;;;;;;;7.85;3.90;;;;;;;;;;5055875;28;20053;-58
2023/04/23 03:54:03;;;;;;;6.45;3.58;;;;;;;;;;5058987;28;20055;-59
2023/04/23 03:56:30;;;;;;;6.88;3.85;;;;;;;;;;5047102;28;20217;-58
2023/04/23 03:59:03;;;;;;;7.80;4.15;;;;;;;;;;5059200;28;20051;-55
2023/04/23 04:01:31;;;;;;;5.43;3.72;;;;;;;;;;5057606;28;20057;-61
2023/04/23 04:04:05;;;;;;;5.88;3.53;;;;;;;;;;5057180;28;20496;-60
2023/04/23 04:06:33;;;;;;;8.48;3.65;;;;;;;;;;5056782;28;20130;-59
2023/04/23 04:09:00;;;;;;;7.57;3.50;;;;;;;;;;5057949;28;20132;-60
2023/04/23 04:11:35;;;;;;;7.43;3.10;;;;;;;;;;5059570;28;20132;-56
2023/04/23 04:14:02;;;;;;;9.55;3.88;;;;;;;;;;5053089;28;20057;-56
2023/04/23 04:16:37;;;;;;;7.85;3.97;;;;;;;;;;5057098;28;20057;-58
2023/04/23 04:19:04;;;;;;;5.32;3.47;;;;;;;;;;5058319;28;20048;-55
2023/04/23 04:21:32;;;;;;;5.35;3.53;;;;;;;;;;5056618;28;20053;-57
2023/04/23 04:24:07;;;;;;;10.82;3.80;;;;;;;;;;5056148;28;20102;-58
2023/04/23 04:26:34;;;;;;;7.63;3.60;;;;;;;;;;5056268;28;20574;-59
2023/04/23 04:29:09;;;;;;;5.20;3.72;;;;;;;;;;5058073;28;20055;-53
2023/04/23 04:31:36;;;;;;;5.53;3.95;;;;;;;;;;5056748;28;20053;-49
2023/04/23 04:34:05;;;;;;;5.70;3.95;;;;;;;;;;5057587;28;20060;-50
2023/04/23 04:36:41;;;;;;;7.30;4.20;;;;;;;;;;5055211;28;20072;-54
2023/04/23 04:39:08;;;;;;;5.10;3.70;;;;;;;;;;5054257;28;20662;-61
2023/04/23 04:41:42;;;;;;;8.25;3.60;;;;;;;;;;5060311;28;20060;-59
2023/04/23 04:44:09;;;;;;;7.82;3.80;;;;;;;;;;5055591;28;20128;-49
2023/04/23 04:46:39;;;;;;;6.15;3.70;;;;;;;;;;5055874;28;20140;-53
2023/04/23 04:49:25;;;;;;;5.53;3.67;;;;;;;;;;5059444;28;20052;-52
2023/04/23 04:52:00;;;;;;;7.43;4.03;;;;;;;;;;5057552;28;20048;-52
2023/04/23 04:54:33;;;;;;;6.25;3.92;;;;;;;;;;5053911;28;20052;-53
2023/04/23 04:57:01;;;;;;;5.75;4.07;;;;;;;;;;5059846;28;20048;-62
2023/04/23 04:59:28;;;;;;;6.07;3.97;;;;;;;;;;5056257;28;20049;-62
2023/04/23 05:02:01;;;;;;;5.68;3.55;;;;;;;;;;5053017;28;20193;-62
2023/04/23 05:04:28;;;;;;;8.32;3.97;;;;;;;;;;5053828;28;20431;-62
2023/04/23 05:07:03;;;;;;;5.75;3.90;;;;;;;;;;5060520;28;20084;-60
2023/04/23 05:09:30;;;;;;;5.65;3.90;;;;;;;;;;5053285;28;20139;-59
2023/04/23 05:11:57;;;;;;;6.05;3.95;;;;;;;;;;5055567;28;20048;-57
2023/04/23 05:14:30;;;;;;;8.45;3.80;;;;;;;;;;5055932;28;20060;-56
2023/04/23 05:16:58;;;;;;;6.88;4.32;;;;;;;;;;5058024;28;20052;-58
2023/04/23 05:19:32;;;;;;;9.70;5.00;;;;;;;;;;5054170;28;20504;-58
2023/04/23 05:22:01;;;;;;;5.97;3.85;;;;;;;;;;5055793;28;20092;-59
2023/04/23 05:24:28;;;;;;;9.82;3.80;;;;;;;;;;5054127;28;20060;-56
2023/04/23 05:27:03;;;;;;;7.90;3.88;;;;;;;;;;5052731;28;20048;-48
2023/04/23 05:29:30;;;;;;;6.43;4.50;;;;;;;;;;5055740;28;20139;-45
2023/04/23 05:31:57;;;;;;;6.65;3.55;;;;;;;;;;5055938;28;20044;-50
2023/04/23 05:34:31;;;;;;;7.22;4.05;;;;;;;;;;5058605;28;20053;-53
2023/04/23 05:36:58;;;;;;;9.07;4.30;;;;;;;;;;5038861;28;20052;-57
2023/04/23 05:39:31;;;;;;;6.45;3.63;;;;;;;;;;5056445;28;20060;-60
2023/04/23 05:41:58;;;;;;;6.38;3.80;;;;;;;;;;5058547;28;20061;-61
2023/04/23 05:44:25;;;;;;;10.40;3.47;;;;;;;;;;5054634;28;20132;-61
2023/04/23 05:46:59;;;;;;;6.18;4.03;;;;;;;;;;5053142;28;20067;-60
2023/04/23 05:49:27;;;;;;;5.82;3.78;;;;;;;;;;5055547;28;20393;-61
2023/04/23 05:52:02;;;;;;;6.05;3.78;;;;;;;;;;5061087;28;20048;-61
2023/04/23 05:54:29;;;;;;;6.38;4.20;;;;;;;;;;5053805;28;20557;-49
2023/04/23 05:56:56;;;;;;;6.78;4.05;;;;;;;;;;5049737;28;20550;-47
2023/04/23 05:59:29;;;;;;;7.20;4.55;;;;;;;;;;5053559;28;20051;-47
2023/04/23 06:01:57;;;;;;;8.95;5.18;;;;;;;;;;5058086;28;20048;-45
2023/04/23 06:04:31;;;;;;;6.15;4.00;;;;;;;;;;5054222;28;20157;-61
2023/04/23 06:06:58;;;;;;;;;;;;;;;;;;5054928;28;20723;-53
2023/04/23 06:09:25;;;;;;;9.45;4.53;;;;;;;;;;5058179;28;19920;-49
2023/04/23 06:12:00;;;;;;;9.90;4.60;;;;;;;;;;5055118;28;20055;-49
2023/04/23 06:14:27;;;;;;;;;;;;;;;;;;5056702;28;20062;-48
2023/04/23 06:17:00;;;;;;;9.23;5.00;;;;;;;;;;5050782;28;19928;-52
2023/04/23 06:19:28;;;;;;;8.30;4.57;;;;;;;;;;5054484;28;20481;-53
2023/04/23 06:22:02;;;;;;;9.57;4.70;;;;;;;;;;5053433;28;20110;-53
2023/04/23 06:24:37;;;;;;;8.55;4.95;;;;;;;;;;5042148;28;20045;-64
2023/04/23 06:27:12;;;;;;;7.70;4.38;;;;;;;;;;5054131;28;20053;-64
2023/04/23 06:29:39;;;;;;;;;;;;;;;;;;5045813;28;20312;-65
2023/04/23 06:32:06;;;;;;;11.75;4.75;;;;;;;;;;5055546;28;19931;-65
2023/04/23 06:34:40;;;;;;;6.80;4.13;;;;;;;;;;5050293;28;20045;-64
2023/04/23 06:37:25;;;;;;;9.48;4.38;;;;;;;;;;5049619;28;20045;-59
2023/04/23 06:39:59;;;;;;;9.60;4.28;;;;;;;;;;5056355;28;20164;-59
2023/04/23 06:42:26;;;;;;;7.03;4.03;;;;;;;;;;5051045;28;20055;-60
2023/04/23 06:44:53;;;;;;;6.63;5.20;;;;;;;;;;5057822;28;20071;-60
2023/04/23 06:47:29;;;;;;;8.85;5.20;;;;;;;;;;5057778;28;20123;-60
2023/04/23 06:50:04;;;;;;;6.50;4.40;;;;;;;;;;5050778;28;20180;-59
2023/04/23 06:52:45;;;;;;;8.90;4.20;;;;;;;;;;5048124;28;20140;-52
2023/04/23 06:55:12;;;;;;;9.05;4.50;;;;;;;;;;5047174;28;20048;-53
2023/04/23 06:57:47;;;;;;;6.82;5.03;;;;;;;;;;5045123;28;20487;-53
2023/04/23 07:00:14;;;;;;;7.60;4.45;;;;;;;;;;5039757;28;20665;-50
2023/04/23 07:02:41;;;;;;;13.30;5.70;;;;;;;;;;5042234;28;20055;-56
2023/04/23 07:05:15;;;;;;;11.23;5.80;;;;;;;;;;5044107;28;20052;-63
2023/04/23 07:07:48;;;;;;;11.70;5.88;;;;;;;;;;5047207;28;20452;-63
2023/04/23 07:10:16;;;;;;;8.30;4.80;;;;;;;;;;5049917;28;20495;-63
2023/04/23 07:12:49;;;;;;;8.50;4.70;;;;;;;;;;5048307;28;20685;-63
2023/04/23 07:15:17;;;;;;;11.57;5.72;;;;;;;;;;5035227;28;20068;-63
2023/04/23 07:17:44;;;;;;;14.75;5.80;;;;;;;;;;4994305;28;20068;-64
2023/04/23 07:20:18;;;;;;;10.55;6.00;;;;;;;;;;4995889;28;20146;-51
2023/04/23 07:22:46;;;;;;;11.45;5.13;;;;;;;;;;4994958;28;21233;-48
2023/04/23 07:25:23;;;;;;;6.82;5.40;;;;;;;;;;4994513;28;20053;-49
2023/04/23 07:27:50;;;;;;;10.18;5.85;;;;;;;;;;4990891;28;20106;-51
2023/04/23 07:30:17;;;;;;;9.30;6.22;;;;;;;;;;5010616;28;20058;-49
2023/04/23 07:32:52;;;;;;;8.75;6.00;;;;;;;;;;4993119;28;20057;-49
2023/04/23 07:35:19;;;;;;;10.15;5.75;;;;;;;;;;4996654;28;20069;-48
2023/04/23 07:37:46;;;;;;;15.18;5.97;;;;;;;;;;4993125;28;20042;-61
2023/04/23 07:40:23;;;;;;;12.45;6.38;;;;;;;;;;4993557;28;20050;-62
2023/04/23 07:42:51;;;;;;;15.73;6.18;;;;;;;;;;4992350;28;20058;-61
2023/04/23 07:45:25;;;;;;;12.45;6.05;;;;;;;;;;4989086;28;20057;-62
2023/04/23 07:47:52;;;;;;;10.25;6.13;;;;;;;;;;4992147;28;20046;-61
2023/04/23 07:50:19;;;;;;;12.43;6.10;;;;;;;;;;5019072;28;20064;-64
2023/04/23 07:52:53;;;;;;;11.20;6.18;;;;;;;;;;4999943;28;20056;-63
2023/04/23 07:55:21;;;;;;;9.48;6.47;;;;;;;;;;5024779;28;20061;-64
2023/04/23 07:57:54;;;;;;;8.82;6.60;;;;;;;;;;5033197;28;20057;-64
2023/04/23 08:00:21;;;;;;;11.10;5.40;;;;;;;;;;5034612;28;20061;-64
2023/04/23 08:02:50;;;;;;;11.52;6.22;;;;;;;;;;5033049;28;20055;-64
2023/04/23 08:05:25;;;;;;;10.75;6.28;;;;;;;;;;5033728;28;20064;-64
2023/04/23 08:07:52;;;;;;;9.85;6.55;;;;;;;;;;5034186;28;20864;-52
2023/04/23 08:10:27;;;;;;;9.90;6.93;;;;;;;;;;5033439;28;20136;-61
2023/04/23 08:12:54;;;;;;;8.88;6.60;;;;;;;;;;5034565;28;20759;-61
2023/04/23 08:15:27;;;;;;;10.70;7.03;;;;;;;;;;5034901;28;20052;-62
2023/04/23 08:17:54;;;;;;;12.18;6.75;;;;;;;;;;5033090;28;20436;-61
2023/04/23 08:20:29;;;;;;;12.38;7.10;;;;;;;;;;5039508;28;20076;-61
2023/04/23 08:22:56;;;;;;;;;;;;;;;;;;5039545;28;20057;-60
2023/04/23 08:25:31;;;;;;;11.18;7.03;;;;;;;;;;5039363;28;19935;-53
2023/04/23 08:27:58;;;;;;;14.63;7.93;;;;;;;;;;5039178;28;20053;-50
2023/04/23 08:30:33;;;;;;;10.57;7.32;;;;;;;;;;5036502;28;20467;-52
2023/04/23 08:33:00;;;;;;;15.73;7.25;;;;;;;;;;5035646;28;20138;-57
2023/04/23 08:35:27;;;;;;;15.30;9.68;;;;;;;;;;5021851;28;20057;-59
2023/04/23 08:38:02;;;;;;;15.18;8.52;;;;;;;;;;5038772;28;20144;-65
2023/04/23 08:40:31;;;;;;;14.93;9.57;;;;;;;;;;5038753;28;20141;-65
2023/04/23 08:43:31;;;;;;;15.70;9.98;;;;;;;;;;5038770;28;20056;-64
2023/04/23 08:46:03;;;;;;;18.17;9.90;;;;;;;;;;5040354;28;20163;-65
2023/04/23 08:48:40;;;;;;;13.98;10.55;;;;;;;;;;5011862;28;20050;-64
2023/04/23 08:51:17;;;;;;;16.63;10.43;;;;;;;;;;5011552;28;20057;-65
2023/04/23 08:53:55;;;;;;;20.77;12.27;;;;;;;;;;5010497;28;20046;-54
2023/04/23 08:56:23;;;;;;;20.73;12.70;;;;;;;;;;5013634;28;20057;-56
2023/04/23 08:58:50;;;;;;;20.95;13.85;;;;;;;;;;5032444;28;20471;-55
2023/04/23 09:01:24;;;;;;;19.83;14.35;;;;;;;;;;5036375;28;20053;-55
2023/04/23 09:03:52;;;;;;;27.67;14.45;;;;;;;;;;5034528;28;20063;-58
2023/04/23 09:06:27;;;;;;;23.85;15.63;;;;;;;;;;5038737;28;20826;-57
2023/04/23 09:08:54;;;;;;;25.40;14.82;;;;;;;;;;5039192;28;20053;-56
2023/04/23 09:11:29;;;;;;;30.35;15.65;;;;;;;;;;5040315;28;20055;-62
2023/04/23 09:13:56;;;;;;;29.05;18.30;;;;;;;;;;5040656;28;20057;-62
2023/04/23 09:16:24;;;;;;;41.67;19.35;;;;;;;;;;5035837;28;20157;-62
2023/04/23 09:18:58;;;;;;;31.88;17.33;;;;;;;;;;5039977;28;20144;-62
2023/04/23 09:21:25;;;;;;;38.05;19.45;;;;;;;;;;5040764;28;20049;-60
2023/04/23 09:24:04;;;;;;;31.33;16.58;;;;;;;;;;5040125;28;20063;-62
2023/04/23 09:26:31;;;;;;;35.28;20.17;;;;;;;;;;5040347;28;20088;-60
2023/04/23 09:28:58;;;;;;;37.63;21.13;;;;;;;;;;5040461;28;20411;-60
2023/04/23 09:31:31;;;;;;;36.03;22.30;;;;;;;;;;5040330;28;20050;-61
2023/04/23 09:33:59;;;;;;;50.50;23.45;;;;;;;;;;5040516;28;20045;-60
2023/04/23 09:36:35;;;;;;;41.90;24.60;;;;;;;;;;5041419;28;20133;-61
2023/04/23 09:39:02;;;;;;;49.47;25.52;;;;;;;;;;5038266;28;20439;-61
2023/04/23 09:41:30;;;;;;;36.15;22.98;;;;;;;;;;5040174;28;20527;-64
2023/04/23 09:44:07;;;;;;;37.38;21.35;;;;;;;;;;5041345;28;20045;-64
2023/04/23 09:46:35;;;;;;;34.92;21.05;;;;;;;;;;5039546;28;20423;-64
2023/04/23 09:49:23;;;;;;;30.15;20.15;;;;;;;;;;4752074;28;8271950;-64
2023/04/23 09:51:56;;;;;;;34.58;22.40;;;;;;;;;;5025044;28;20080;-64
2023/04/23 09:54:31;;;;;;;29.65;19.27;;;;;;;;;;5017790;28;20079;-49
2023/04/23 09:57:02;;;;;;;27.48;18.02;;;;;;;;;;5022761;28;20063;-52
2023/04/23 09:59:37;;;;;;;22.80;14.98;;;;;;;;;;5020188;28;20055;-48
2023/04/23 10:02:16;;;;;;;20.85;14.73;;;;;;;;;;5020754;28;20052;-46
2023/04/23 10:04:51;;;;;;;21.23;14.10;;;;;;;;;;5019702;28;20057;-50
2023/04/23 10:07:33;;;;;;;20.23;13.90;;;;;;;;;;5019758;28;20053;-54
2023/04/23 10:10:07;;;;;;;22.52;14.32;;;;;;;;;;5019292;28;20124;-62
2023/04/23 10:12:35;;;;;;;;;;;;;;;;;;5019547;28;20068;-62
2023/04/23 10:15:19;;;;;;;21.40;15.63;;;;;;;;;;5019691;28;19925;-60
2023/04/23 10:17:54;;;;;;;22.77;14.38;;;;;;;;;;5018820;28;20060;-61
2023/04/23 10:20:22;;;;;;;20.95;13.98;;;;;;;;;;5020329;28;20084;-61
2023/04/23 10:22:57;;;;;;;19.60;13.65;;;;;;;;;;5018264;28;20049;-61
2023/04/23 10:25:24;;;;;;;21.70;14.13;;;;;;;;;;5017948;28;20057;-61
2023/04/23 10:27:52;;;;;;;20.23;13.30;;;;;;;;;;5019602;28;20080;-49
2023/04/23 10:30:26;;;;;;;20.73;13.50;;;;;;;;;;5017849;28;20169;-49
2023/04/23 10:32:53;;;;;;;;;;;;;;;;;;5018087;28;20136;-55
2023/04/23 10:35:27;;;;;;;19.63;13.38;;;;;;;;;;5016769;28;19925;-51
2023/04/23 10:37:54;;;;;;;18.10;13.70;;;;;;;;;;5020733;28;20057;-57
2023/04/23 10:40:31;;;;;;;19.63;13.70;;;;;;;;;;5040609;28;20064;-52
2023/04/23 10:42:59;;;;;;;18.30;11.73;;;;;;;;;;5039707;28;20538;-52
2023/04/23 10:45:29;;;;;;;15.43;11.43;;;;;;;;;;5036110;28;20175;-54
2023/04/23 10:48:04;;;;;;;17.77;11.32;;;;;;;;;;5039054;28;20165;-53
2023/04/23 10:50:45;;;;;;;17.02;10.70;;;;;;;;;;5021405;28;20241;-50
2023/04/23 10:53:25;;;;;;;14.90;10.18;;;;;;;;;;5018735;28;20056;-53
2023/04/23 10:56:05;;;;;;;16.27;10.18;;;;;;;;;;5008146;28;20049;-56
2023/04/23 10:58:49;;;;;;;16.75;10.45;;;;;;;;;;5018712;28;21135;-53
2023/04/23 11:01:17;;;;;;;15.55;10.35;;;;;;;;;;5017747;28;20057;-57
2023/04/23 11:03:52;;;;;;;15.43;9.75;;;;;;;;;;5021522;28;20133;-56
2023/04/23 11:06:40;;;;;;;17.05;10.55;;;;;;;;;;5017748;28;20050;-56
2023/04/23 11:09:33;;;;;;;15.45;9.65;;;;;;;;;;5018182;28;20520;-58
2023/04/23 11:12:01;;;;;;;16.02;9.68;;;;;;;;;;5020252;28;20429;-58
2023/04/23 11:14:36;;;;;;;16.17;9.77;;;;;;;;;;5021127;28;20152;-58
2023/04/23 11:17:04;;;;;;;12.75;9.43;;;;;;;;;;5012337;28;20149;-57
2023/04/23 11:19:34;;;;;;;14.05;8.98;;;;;;;;;;5012410;28;20160;-54
2023/04/23 11:22:17;;;;;;;15.35;8.75;;;;;;;;;;5014424;28;20138;-51
2023/04/23 11:24:50;;;;;;;11.75;9.00;;;;;;;;;;5022036;28;20071;-59
2023/04/23 11:27:24;;;;;;;14.40;8.20;;;;;;;;;;5019693;28;20083;-59
2023/04/23 11:29:58;;;;;;;12.65;9.55;;;;;;;;;;5011261;28;20049;-60
2023/04/23 11:32:26;;;;;;;;;;;;;;;;;;5018652;28;20045;-60
2023/04/23 11:35:03;;;;;;;13.38;8.90;;;;;;;;;;5021164;28;19925;-59
2023/04/23 11:37:40;;;;;;;16.00;8.45;;;;;;;;;;5017818;28;20574;-61
2023/04/23 11:40:19;;;;;;;15.48;10.15;;;;;;;;;;5015626;28;20132;-61
2023/04/23 11:42:54;;;;;;;13.10;9.32;;;;;;;;;;5013934;28;20505;-61
2023/04/23 11:45:29;;;;;;;16.35;10.07;;;;;;;;;;5017866;28;20504;-61
2023/04/23 11:47:57;;;;;;;17.67;9.45;;;;;;;;;;5020649;28;20587;-61
2023/04/23 11:50:26;;;;;;;13.90;8.65;;;;;;;;;;5017062;28;20643;-61
2023/04/23 11:53:08;;;;;;;16.75;9.05;;;;;;;;;;5019165;28;20077;-60
2023/04/23 11:55:35;;;;;;;17.48;9.30;;;;;;;;;;5022922;28;20064;-60
2023/04/23 11:58:10;;;;;;;17.05;8.43;;;;;;;;;;5024772;28;20080;-60
2023/04/23 12:00:43;;;;;;;13.65;7.68;;;;;;;;;;5023552;28;20045;-60
2023/04/23 12:03:18;;;;;;;14.73;7.95;;;;;;;;;;5022377;28;20060;-53
2023/04/23 12:05:45;;;;;;;13.65;8.68;;;;;;;;;;5022560;28;20041;-56
2023/04/23 12:08:17;;;;;;;15.88;9.02;;;;;;;;;;5024389;28;20057;-54
2023/04/23 12:10:55;;;;;;;18.27;9.20;;;;;;;;;;5022580;28;20086;-54
2023/04/23 12:13:23;;;;;;;15.15;9.57;;;;;;;;;;5024058;28;20079;-55
2023/04/23 12:15:58;;;;;;;16.20;9.10;;;;;;;;;;5017258;28;20053;-55
2023/04/23 12:18:29;;;;;;;15.90;9.60;;;;;;;;;;5019548;28;20132;-55
2023/04/23 12:20:57;;;;;;;18.65;9.23;;;;;;;;;;5022276;28;20095;-60
2023/04/23 12:23:32;;;;;;;17.38;11.10;;;;;;;;;;5015692;28;20148;-60
2023/04/23 12:26:13;;;;;;;18.42;11.15;;;;;;;;;;5021798;28;20484;-60
2023/04/23 12:28:47;;;;;;;22.25;11.23;;;;;;;;;;5021483;28;20099;-60
2023/04/23 12:31:25;;;;;;;19.27;11.88;;;;;;;;;;5018948;28;20058;-61
2023/04/23 12:33:56;;;;;;;24.77;12.43;;;;;;;;;;5022472;28;20057;-60
2023/04/23 12:36:30;;;;;;;25.75;13.20;;;;;;;;;;5023074;28;20089;-61
2023/04/23 12:39:16;;;;;;;26.38;13.95;;;;;;;;;;5021748;28;20071;-60
2023/04/23 12:41:51;;;;;;;28.77;14.65;;;;;;;;;;5017498;28;20057;-61
2023/04/23 12:44:18;;;;;;;28.35;14.63;;;;;;;;;;5019183;28;20053;-60
2023/04/23 12:46:48;;;;;;;27.25;13.93;;;;;;;;;;5016658;28;20060;-61
2023/04/23 12:49:25;;;;;;;24.17;13.95;;;;;;;;;;5038759;28;20053;-59
2023/04/23 12:52:00;;;;;;;27.80;16.17;;;;;;;;;;5017935;28;20586;-60
2023/04/23 12:54:38;;;;;;;26.33;14.85;;;;;;;;;;5038208;28;20077;-60
2023/04/23 12:57:06;;;;;;;30.42;16.08;;;;;;;;;;5040238;28;20496;-59
2023/04/23 12:59:40;;;;;;;26.27;15.20;;;;;;;;;;5036410;28;20055;-60
2023/04/23 13:02:08;;;;;;;30.85;17.27;;;;;;;;;;5032419;28;20080;-59
2023/04/23 13:04:36;;;;;;;28.95;18.25;;;;;;;;;;5033746;28;20053;-59
2023/04/23 13:07:09;;;;;;;31.63;17.80;;;;;;;;;;5035978;28;20051;-59
2023/04/23 13:09:37;;;;;;;29.98;17.27;;;;;;;;;;5032882;28;20083;-58
2023/04/23 13:12:11;;;;;;;30.10;18.52;;;;;;;;;;5030646;28;20102;-59
2023/04/23 13:14:38;;;;;;;32.72;18.33;;;;;;;;;;5037713;28;20057;-58
2023/04/23 13:17:06;;;;;;;29.02;18.45;;;;;;;;;;5036005;28;21083;-56
2023/04/23 13:19:40;;;;;;;26.20;15.57;;;;;;;;;;5042942;28;20513;-59
2023/04/23 13:22:07;;;;;;;28.20;16.13;;;;;;;;;;5038236;28;20044;-48
2023/04/23 13:24:42;;;;;;;25.92;15.45;;;;;;;;;;5030279;28;20059;-48
2023/04/23 13:27:10;;;;;;;25.77;14.68;;;;;;;;;;5036580;28;20505;-51
2023/04/23 13:29:44;;;;;;;21.77;14.43;;;;;;;;;;5038721;28;20045;-48
2023/04/23 13:32:11;;;;;;;25.75;14.48;;;;;;;;;;5035875;28;20504;-49
2023/04/23 13:34:38;;;;;;;26.15;14.88;;;;;;;;;;5039848;28;20134;-47
2023/04/23 13:37:12;;;;;;;25.30;15.75;;;;;;;;;;5039006;28;20953;-58
2023/04/23 13:39:39;;;;;;;26.95;15.75;;;;;;;;;;5037059;28;20087;-59
2023/04/23 13:42:13;;;;;;;27.20;15.55;;;;;;;;;;5040533;28;20079;-58
2023/04/23 13:44:40;;;;;;;25.50;15.18;;;;;;;;;;5037613;28;20051;-59
2023/04/23 13:47:15;;;;;;;29.33;15.18;;;;;;;;;;5034918;28;20522;-57
2023/04/23 13:49:42;;;;;;;24.98;15.20;;;;;;;;;;5037297;28;20073;-60
2023/04/23 13:52:16;;;;;;;29.45;16.58;;;;;;;;;;5015852;28;20084;-55
2023/04/23 13:54:51;;;;;;;27.50;15.13;;;;;;;;;;5014539;28;20108;-60
2023/04/23 13:57:19;;;;;;;25.20;14.85;;;;;;;;;;5010970;28;20049;-59
2023/04/23 13:59:54;;;;;;;25.67;16.02;;;;;;;;;;5012747;28;20060;-59
2023/04/23 14:02:22;;;;;;;19.80;13.95;;;;;;;;;;5016318;28;20416;-59
2023/04/23 14:04:49;;;;;;;25.45;14.02;;;;;;;;;;5016886;28;20831;-59
2023/04/23 14:07:24;;;;;;;21.77;14.95;;;;;;;;;;5011892;28;20053;-59
2023/04/23 14:09:51;;;;;;;25.50;15.05;;;;;;;;;;5017781;28;20157;-56
2023/04/23 14:12:28;;;;;;;24.95;16.48;;;;;;;;;;5036515;28;20180;-60
2023/04/23 14:14:55;;;;;;;28.25;18.48;;;;;;;;;;5035498;28;20231;-60
2023/04/23 14:17:22;;;;;;;;;;;;;;;;;;5033992;28;20148;-46
2023/04/23 14:19:57;;;;;;;26.65;16.05;;;;;;;;;;5035285;28;19928;-49
2023/04/23 14:22:24;;;;;;;28.83;17.27;;;;;;;;;;5035431;28;20179;-46
2023/04/23 14:25:02;;;;;;;32.33;16.23;;;;;;;;;;5039130;28;20083;-48
2023/04/23 14:27:33;;;;;;;32.13;16.80;;;;;;;;;;5034366;28;20048;-45
2023/04/23 14:30:14;;;;;;;23.45;15.40;;;;;;;;;;5038918;28;20172;-49
2023/04/23 14:32:42;;;;;;;25.42;16.10;;;;;;;;;;5036462;28;20049;-52
2023/04/23 14:35:17;;;;;;;28.67;16.75;;;;;;;;;;5036852;28;20080;-58
2023/04/23 14:38:08;;;;;;;24.92;15.82;;;;;;;;;;5035077;28;20135;-57
2023/04/23 14:40:42;;;;;;;31.48;17.00;;;;;;;;;;5039533;28;20063;-59
2023/04/23 14:43:09;;;;;;;24.92;15.75;;;;;;;;;;5041468;28;20053;-58
2023/04/23 14:45:42;;;;;;;31.88;16.90;;;;;;;;;;5039158;28;20061;-58
2023/04/23 14:48:16;;;;;;;27.20;16.02;;;;;;;;;;5038927;28;20091;-58
2023/04/23 14:50:43;;;;;;;28.27;17.10;;;;;;;;;;5030703;28;20053;-60
2023/04/23 14:53:23;;;;;;;25.02;16.52;;;;;;;;;;5009526;28;20068;-59
2023/04/23 14:55:50;;;;;;;27.80;16.58;;;;;;;;;;5015152;28;20049;-57
2023/04/23 14:58:25;;;;;;;25.55;16.13;;;;;;;;;;5016566;28;20053;-60
2023/04/23 15:00:53;;;;;;;33.08;18.02;;;;;;;;;;5010281;28;20061;-59
2023/04/23 15:03:20;;;;;;;33.75;16.92;;;;;;;;;;5016517;28;20516;-59